createdAt,value
2022-10-28T00:01:25.339Z,9.10
2022-10-28T00:03:58.844Z,9.20
2022-10-28T00:06:33.818Z,10.00
2022-10-28T00:09:03.667Z,9.60
2022-10-28T00:11:35.185Z,10.70
2022-10-28T00:14:05.896Z,9.90
2022-10-28T00:16:35.619Z,10.30
2022-10-28T00:19:05.995Z,8.70
2022-10-28T00:21:36.841Z,10.00
2022-10-28T00:24:06.526Z,9.80
2022-10-28T00:26:36.545Z,9.40
2022-10-28T00:29:14.401Z,9.50
2022-10-28T00:31:43.107Z,10.70
2022-10-28T00:34:19.249Z,11.30
2022-10-28T00:36:48.309Z,10.40
2022-10-28T00:39:22.119Z,10.60
2022-10-28T00:41:56.018Z,9.40
2022-10-28T00:44:43.434Z,8.90
2022-10-28T00:47:32.974Z,9.60
2022-10-28T00:50:12.043Z,9.40
2022-10-28T00:52:40.693Z,9.40
2022-10-28T00:55:09.456Z,9.30
2022-10-28T00:57:39.153Z,8.20
2022-10-28T01:00:08.724Z,8.80
2022-10-28T01:02:44.627Z,8.40
2022-10-28T01:05:14.692Z,8.20
2022-10-28T01:07:43.610Z,8.30
2022-10-28T01:10:12.774Z,9.00
2022-10-28T01:12:59.406Z,8.90
2022-10-28T01:15:35.263Z,8.00
2022-10-28T01:18:32.062Z,9.30
2022-10-28T01:21:18.760Z,9.80
2022-10-28T01:23:46.533Z,8.80
2022-10-28T01:26:20.042Z,8.60
2022-10-28T01:29:06.594Z,9.00
2022-10-28T01:31:41.729Z,9.20
2022-10-28T01:34:27.816Z,8.90
2022-10-28T01:37:28.402Z,9.00
2022-10-28T01:40:38.380Z,8.10
2022-10-28T01:43:15.844Z,7.70
2022-10-28T01:46:04.800Z,8.20
2022-10-28T01:48:53.816Z,8.70
2022-10-28T01:51:26.904Z,8.40
2022-10-28T01:53:58.480Z,8.40
2022-10-28T01:56:30.995Z,8.80
2022-10-28T01:59:01.303Z,8.10
2022-10-28T02:01:31.784Z,9.10
2022-10-28T02:03:59.763Z,7.80
2022-10-28T02:06:31.061Z,8.30
2022-10-28T02:09:08.163Z,37.00
2022-10-28T02:12:03.942Z,9.50
2022-10-28T02:15:09.871Z,9.20
2022-10-28T02:18:11.468Z,9.70
2022-10-28T02:20:58.287Z,8.70
2022-10-28T02:23:35.322Z,8.60
2022-10-28T02:26:10.421Z,8.00
2022-10-28T02:28:46.777Z,9.10
2022-10-28T02:31:24.793Z,9.70
2022-10-28T02:33:57.266Z,8.50
2022-10-28T02:36:28.192Z,8.60
2022-10-28T02:38:58.436Z,8.70
2022-10-28T02:41:26.209Z,8.40
2022-10-28T02:43:59.387Z,8.60
2022-10-28T02:46:30.930Z,8.50
2022-10-28T02:49:07.750Z,9.00
2022-10-28T02:51:53.572Z,8.70
2022-10-28T02:54:35.521Z,9.10
2022-10-28T02:57:13.678Z,8.60
2022-10-28T02:59:42.052Z,8.00
2022-10-28T03:02:09.899Z,8.00
2022-10-28T03:04:37.724Z,8.50
2022-10-28T03:07:05.624Z,7.90
2022-10-28T03:09:33.669Z,8.50
2022-10-28T03:12:01.571Z,8.30
2022-10-28T03:14:29.413Z,7.40
2022-10-28T03:16:57.358Z,7.30
2022-10-28T03:19:25.236Z,7.30
2022-10-28T03:21:53.078Z,8.00
2022-10-28T03:24:20.935Z,7.40
2022-10-28T03:26:48.745Z,7.30
2022-10-28T03:29:16.546Z,7.00
2022-10-28T03:31:44.348Z,7.30
2022-10-28T03:34:12.162Z,7.10
2022-10-28T03:36:40.078Z,7.10
2022-10-28T03:39:07.873Z,6.90
2022-10-28T03:41:35.754Z,7.00
2022-10-28T03:44:03.812Z,7.60
2022-10-28T03:46:35.078Z,7.20
2022-10-28T03:49:04.173Z,6.70
2022-10-28T03:51:32.091Z,7.20
2022-10-28T03:53:59.977Z,6.50
2022-10-28T03:56:27.773Z,6.30
2022-10-28T03:58:55.720Z,7.40
2022-10-28T04:01:23.655Z,8.70
2022-10-28T04:03:51.649Z,7.50
2022-10-28T04:06:19.798Z,7.00
2022-10-28T04:08:47.636Z,6.80
2022-10-28T04:11:15.451Z,7.50
2022-10-28T04:13:43.295Z,6.80
2022-10-28T04:16:11.151Z,7.60
2022-10-28T04:18:38.980Z,7.10
2022-10-28T04:21:06.836Z,7.60
2022-10-28T04:23:34.700Z,8.20
2022-10-28T04:26:03.048Z,7.60
2022-10-28T04:28:30.845Z,7.50
2022-10-28T04:30:58.797Z,7.70
2022-10-28T04:33:26.656Z,24.60
2022-10-28T04:35:54.445Z,8.20
2022-10-28T04:40:52.795Z,8.00
2022-10-28T04:43:20.648Z,7.90
2022-10-28T04:45:48.675Z,8.00
2022-10-28T04:48:16.633Z,7.80
2022-10-28T04:50:45.143Z,8.90
2022-10-28T04:53:13.538Z,8.20
2022-10-28T04:55:41.421Z,10.00
2022-10-28T04:58:10.051Z,9.00
2022-10-28T05:00:37.869Z,10.60
2022-10-28T05:03:05.653Z,11.70
2022-10-28T05:05:33.879Z,8.20
2022-10-28T05:08:02.553Z,9.40
2022-10-28T05:10:31.509Z,8.80
2022-10-28T05:12:59.525Z,8.60
2022-10-28T05:15:27.811Z,8.30
2022-10-28T05:17:56.025Z,8.40
2022-10-28T05:20:24.431Z,9.10
2022-10-28T05:22:55.138Z,9.10
2022-10-28T05:25:24.000Z,9.30
2022-10-28T05:27:52.298Z,8.30
2022-10-28T05:30:20.181Z,9.00
2022-10-28T05:32:50.365Z,7.50
2022-10-28T05:35:20.806Z,9.10
2022-10-28T05:37:48.622Z,8.80
2022-10-28T05:40:16.673Z,9.40
2022-10-28T05:42:45.154Z,16.20
2022-10-28T05:45:13.531Z,9.10
2022-10-28T05:47:48.788Z,7.50
2022-10-28T05:50:19.004Z,9.10
2022-10-28T05:52:52.067Z,8.10
2022-10-28T05:55:21.604Z,8.10
2022-10-28T05:57:51.470Z,8.00
2022-10-28T06:00:21.745Z,8.40
2022-10-28T06:02:49.746Z,8.80
2022-10-28T06:05:17.849Z,7.80
2022-10-28T06:07:45.890Z,7.60
2022-10-28T06:10:13.794Z,7.40
2022-10-28T06:12:40.887Z,7.50
2022-10-28T06:15:09.011Z,7.30
2022-10-28T06:17:36.906Z,8.20
2022-10-28T06:20:05.345Z,7.40
2022-10-28T06:22:33.192Z,7.40
2022-10-28T06:25:01.012Z,7.00
2022-10-28T06:27:31.028Z,6.70
2022-10-28T06:29:58.835Z,6.40
2022-10-28T06:32:26.744Z,6.10
2022-10-28T06:34:54.744Z,5.70
2022-10-28T06:37:22.616Z,5.30
2022-10-28T06:39:52.130Z,4.80
2022-10-28T06:42:20.062Z,5.20
2022-10-28T06:44:49.313Z,4.50
2022-10-28T06:47:18.778Z,4.50
2022-10-28T06:49:46.639Z,4.20
2022-10-28T06:52:14.512Z,4.60
2022-10-28T06:54:43.869Z,5.70
2022-10-28T06:57:11.776Z,5.20
2022-10-28T06:59:39.911Z,4.70
2022-10-28T07:02:12.246Z,5.00
2022-10-28T07:04:40.205Z,5.70
2022-10-28T07:07:08.916Z,5.10
2022-10-28T07:09:39.628Z,5.20
2022-10-28T07:12:08.300Z,4.60
2022-10-28T07:14:36.308Z,5.00
2022-10-28T07:17:04.367Z,5.50
2022-10-28T07:19:32.243Z,5.50
2022-10-28T07:22:00.205Z,6.10
2022-10-28T07:27:00.767Z,4.70
2022-10-28T07:29:28.657Z,4.80
2022-10-28T07:31:57.209Z,4.30
2022-10-28T07:34:27.255Z,4.70
2022-10-28T07:36:56.680Z,4.20
2022-10-28T07:39:24.684Z,3.80
2022-10-28T07:41:52.651Z,4.50
2022-10-28T07:44:20.516Z,4.10
2022-10-28T07:46:48.319Z,4.30
2022-10-28T07:49:17.618Z,4.20
2022-10-28T07:51:45.572Z,3.80
2022-10-28T07:54:13.400Z,3.70
2022-10-28T07:56:41.195Z,3.40
2022-10-28T07:59:09.000Z,3.50
2022-10-28T08:01:36.906Z,3.30
2022-10-28T08:04:05.007Z,3.10
2022-10-28T08:06:35.864Z,3.40
2022-10-28T08:09:04.112Z,3.60
2022-10-28T08:11:31.980Z,3.20
2022-10-28T08:13:59.736Z,3.10
2022-10-28T08:16:29.124Z,3.20
2022-10-28T08:18:57.340Z,3.20
2022-10-28T08:21:27.126Z,3.30
2022-10-28T08:23:55.418Z,2.90
2022-10-28T08:26:23.321Z,3.20
2022-10-28T08:28:51.209Z,2.50
2022-10-28T08:31:19.018Z,2.20
2022-10-28T08:33:47.057Z,2.70
2022-10-28T08:36:16.923Z,2.70
2022-10-28T08:38:46.537Z,3.00
2022-10-28T08:41:26.615Z,2.60
2022-10-28T08:44:25.325Z,2.30
2022-10-28T08:47:17.792Z,2.50
2022-10-28T08:49:52.051Z,2.40
2022-10-28T08:52:39.496Z,2.40
2022-10-28T08:55:25.600Z,2.50
2022-10-28T08:58:08.217Z,2.60
2022-10-28T09:00:37.116Z,2.20
2022-10-28T09:03:28.189Z,2.20
2022-10-28T09:06:03.234Z,2.10
2022-10-28T09:08:37.762Z,2.30
2022-10-28T09:11:16.352Z,2.50
2022-10-28T09:14:06.368Z,2.60
2022-10-28T09:16:56.338Z,2.30
2022-10-28T09:19:42.227Z,2.00
2022-10-28T09:22:20.672Z,2.00
2022-10-28T09:25:15.036Z,1.60
2022-10-28T09:28:14.860Z,2.00
2022-10-28T09:30:50.537Z,2.10
2022-10-28T09:33:46.285Z,3.30
2022-10-28T09:36:25.180Z,2.10
2022-10-28T09:38:58.673Z,2.50
2022-10-28T09:41:34.587Z,2.20
2022-10-28T09:44:25.489Z,2.10
2022-10-28T09:46:57.212Z,2.00
2022-10-28T09:49:30.080Z,2.10
2022-10-28T09:52:13.891Z,2.30
2022-10-28T09:54:52.336Z,2.90
2022-10-28T09:57:22.440Z,2.20
2022-10-28T09:59:50.328Z,2.60
2022-10-28T10:02:27.341Z,2.50
2022-10-28T10:04:57.918Z,2.40
2022-10-28T10:07:35.041Z,2.40
2022-10-28T10:10:13.042Z,2.50
2022-10-28T10:12:41.932Z,3.30
2022-10-28T10:17:46.062Z,3.90
2022-10-28T10:20:17.522Z,4.20
2022-10-28T10:22:48.175Z,4.90
2022-10-28T10:25:18.815Z,5.70
2022-10-28T10:28:04.963Z,2.80
2022-10-28T10:30:45.424Z,3.60
2022-10-28T10:33:23.943Z,3.30
2022-10-28T10:36:02.545Z,2.70
2022-10-28T10:38:32.404Z,2.30
2022-10-28T10:41:00.397Z,2.30
2022-10-28T10:43:37.741Z,2.20
2022-10-28T10:46:17.969Z,2.20
2022-10-28T10:51:25.033Z,2.90
2022-10-28T10:53:57.877Z,2.30
2022-10-28T10:56:29.562Z,2.20
2022-10-28T10:59:02.375Z,1.90
2022-10-28T11:01:37.055Z,2.50
2022-10-28T11:04:07.373Z,3.40
2022-10-28T11:06:41.783Z,2.20
2022-10-28T11:09:33.817Z,3.70
2022-10-28T11:12:13.800Z,3.00
2022-10-28T11:14:55.962Z,2.40
2022-10-28T11:17:26.809Z,8.30
2022-10-28T11:19:57.832Z,3.60
2022-10-28T11:22:31.681Z,7.20
2022-10-28T11:25:11.457Z,6.20
2022-10-28T11:28:21.501Z,3.50
2022-10-28T11:31:27.476Z,22.00
2022-10-28T11:34:20.636Z,4.00
2022-10-28T11:36:57.411Z,3.40
2022-10-28T11:39:34.676Z,6.70
2022-10-28T11:42:20.714Z,3.00
2022-10-28T11:44:54.810Z,2.50
2022-10-28T11:47:53.587Z,3.30
2022-10-28T11:50:40.351Z,3.00
2022-10-28T11:53:23.595Z,2.40
2022-10-28T11:56:06.221Z,2.30
2022-10-28T11:58:52.835Z,2.80
2022-10-28T12:01:41.045Z,2.60
2022-10-28T12:04:19.369Z,2.50
2022-10-28T12:07:19.485Z,2.30
2022-10-28T12:10:09.550Z,2.60
2022-10-28T12:12:51.625Z,2.60
2022-10-28T12:15:25.879Z,2.50
2022-10-28T12:18:15.543Z,2.40
2022-10-28T12:20:48.210Z,2.40
2022-10-28T12:23:22.928Z,2.70
2022-10-28T12:25:57.393Z,2.70
2022-10-28T12:28:30.386Z,2.60
2022-10-28T12:30:59.010Z,3.20
2022-10-28T12:33:38.193Z,3.10
2022-10-28T12:36:08.924Z,2.80
2022-10-28T12:38:56.979Z,3.10
2022-10-28T12:41:44.201Z,2.70
2022-10-28T12:44:18.958Z,2.40
2022-10-28T12:47:13.265Z,2.50
2022-10-28T12:49:51.210Z,2.30
2022-10-28T12:52:40.853Z,2.00
2022-10-28T12:55:33.213Z,2.80
2022-10-28T12:58:09.045Z,3.30
2022-10-28T13:00:43.276Z,2.60
2022-10-28T13:03:15.491Z,2.60
2022-10-28T13:06:18.688Z,2.40
2022-10-28T13:08:57.539Z,2.50
2022-10-28T13:11:31.408Z,2.70
2022-10-28T13:14:07.454Z,2.50
2022-10-28T13:17:15.020Z,3.30
2022-10-28T13:20:21.978Z,2.70
2022-10-28T13:22:56.127Z,3.20
2022-10-28T13:25:34.217Z,3.20
2022-10-28T13:28:03.068Z,3.40
2022-10-28T13:30:32.209Z,3.10
2022-10-28T13:33:13.934Z,3.50
2022-10-28T13:35:42.400Z,3.40
2022-10-28T13:38:13.185Z,3.80
2022-10-28T13:43:20.654Z,3.60
2022-10-28T13:45:55.100Z,3.90
2022-10-28T13:48:28.942Z,4.20
2022-10-28T13:51:09.987Z,4.70
2022-10-28T13:56:27.059Z,4.90
2022-10-28T13:59:03.953Z,4.90
2022-10-28T14:01:56.503Z,4.90
2022-10-28T14:04:36.305Z,5.00
2022-10-28T14:07:06.499Z,4.50
2022-10-28T14:09:36.682Z,4.60
2022-10-28T14:12:13.774Z,4.60
2022-10-28T14:15:13.661Z,5.70
2022-10-28T14:17:45.145Z,5.80
2022-10-28T14:20:28.287Z,9.90
2022-10-28T14:22:56.816Z,4.70
2022-10-28T14:25:50.989Z,4.70
2022-10-28T14:28:30.896Z,4.50
2022-10-28T14:31:07.677Z,7.40
2022-10-28T14:34:04.780Z,15.60
2022-10-28T14:36:42.669Z,14.20
2022-10-28T14:40:09.376Z,14.50
2022-10-28T14:43:17.782Z,5.70
2022-10-28T14:46:08.636Z,5.10
2022-10-28T14:48:36.424Z,5.70
2022-10-28T14:51:04.967Z,5.40
2022-10-28T14:53:35.579Z,5.70
2022-10-28T14:56:10.300Z,4.80
2022-10-28T14:58:41.781Z,4.80
2022-10-28T15:01:37.446Z,4.60
2022-10-28T15:04:13.151Z,4.10
2022-10-28T15:06:43.293Z,4.40
2022-10-28T15:09:27.355Z,4.80
2022-10-28T15:12:05.721Z,5.60
2022-10-28T15:14:39.844Z,4.90
2022-10-28T15:17:26.066Z,4.20
2022-10-28T15:19:59.041Z,10.20
2022-10-28T15:22:30.794Z,5.80
2022-10-28T15:25:00.570Z,6.10
2022-10-28T15:27:33.995Z,7.50
2022-10-28T15:30:04.720Z,7.90
2022-10-28T15:32:35.543Z,10.30
2022-10-28T15:35:35.719Z,8.90
2022-10-28T15:38:29.572Z,7.30
2022-10-28T15:40:57.390Z,11.30
2022-10-28T15:43:28.259Z,11.70
2022-10-28T15:48:36.056Z,8.30
2022-10-28T15:51:14.440Z,7.50
2022-10-28T15:53:54.192Z,9.00
2022-10-28T15:56:26.885Z,7.20
2022-10-28T15:59:00.907Z,9.50
2022-10-28T16:01:34.881Z,9.90
2022-10-28T16:04:02.838Z,12.70
2022-10-28T16:06:34.689Z,12.00
2022-10-28T16:09:17.885Z,10.30
2022-10-28T16:11:52.596Z,11.50
2022-10-28T16:14:44.762Z,10.40
2022-10-28T16:17:19.176Z,6.20
2022-10-28T16:19:55.269Z,9.30
2022-10-28T16:22:26.053Z,7.30
2022-10-28T16:24:55.259Z,6.70
2022-10-28T16:27:28.549Z,9.00
2022-10-28T16:29:56.609Z,10.20
2022-10-28T16:32:35.244Z,12.40
2022-10-28T16:35:12.925Z,8.00
2022-10-28T16:37:44.825Z,8.20
2022-10-28T16:40:37.813Z,12.10
2022-10-28T16:43:02.798Z,11.80
2022-10-28T16:45:30.645Z,13.40
2022-10-28T16:47:58.707Z,10.20
2022-10-28T16:50:26.480Z,13.80
2022-10-28T16:52:56.203Z,7.80
2022-10-28T16:55:24.062Z,12.80
2022-10-28T16:57:52.403Z,13.80
2022-10-28T17:00:20.671Z,8.80
2022-10-28T17:02:50.843Z,11.50
2022-10-28T17:05:22.051Z,10.50
2022-10-28T17:07:50.561Z,12.70
2022-10-28T17:10:18.477Z,9.60
2022-10-28T17:12:46.451Z,10.40
2022-10-28T17:15:14.337Z,9.80
2022-10-28T17:17:42.232Z,6.50
2022-10-28T17:20:10.490Z,7.20
2022-10-28T17:22:40.798Z,4.90
2022-10-28T17:25:09.525Z,5.60
2022-10-28T17:27:37.434Z,5.30
2022-10-28T17:30:06.493Z,4.60
2022-10-28T17:32:34.372Z,7.40
2022-10-28T17:35:02.174Z,7.30
2022-10-28T17:37:29.982Z,5.90
2022-10-28T17:39:57.896Z,4.90
2022-10-28T17:42:25.924Z,4.90
2022-10-28T17:44:53.784Z,4.80
2022-10-28T17:47:21.688Z,4.50
2022-10-28T17:49:49.494Z,8.40
2022-10-28T17:53:07.810Z,4.80
2022-10-28T17:55:35.720Z,5.80
2022-10-28T17:58:03.558Z,5.50
2022-10-28T18:00:31.651Z,6.20
2022-10-28T18:02:59.465Z,5.60
2022-10-28T18:05:27.170Z,6.40
2022-10-28T18:07:55.320Z,6.10
2022-10-28T18:10:23.194Z,5.40
2022-10-28T18:12:52.478Z,5.00
2022-10-28T18:15:20.458Z,6.00
2022-10-28T18:17:50.980Z,3.80
2022-10-28T18:20:18.689Z,5.00
2022-10-28T18:22:46.403Z,4.80
2022-10-28T18:25:14.165Z,6.50
2022-10-28T18:27:41.861Z,7.10
2022-10-28T18:30:09.904Z,4.90
2022-10-28T18:32:37.551Z,4.20
2022-10-28T18:35:05.769Z,6.00
2022-10-28T18:37:33.504Z,4.50
2022-10-28T18:40:01.251Z,8.00
2022-10-28T18:42:29.407Z,6.40
2022-10-28T18:44:58.809Z,7.90
2022-10-28T18:47:26.548Z,11.50
2022-10-28T18:49:54.525Z,6.60
2022-10-28T18:52:22.235Z,6.90
2022-10-28T18:54:49.958Z,6.60
2022-10-28T18:57:19.241Z,5.80
2022-10-28T19:00:16.875Z,5.40
2022-10-28T19:02:35.145Z,4.80
2022-10-28T19:05:03.342Z,5.40
2022-10-28T19:07:31.935Z,5.30
2022-10-28T19:09:59.737Z,4.20
2022-10-28T19:12:27.393Z,6.60
2022-10-28T19:14:55.107Z,5.40
2022-10-28T19:17:22.985Z,4.80
2022-10-28T19:19:51.674Z,4.60
2022-10-28T19:22:19.621Z,5.10
2022-10-28T19:24:47.406Z,4.60
2022-10-28T19:27:15.550Z,4.20
2022-10-28T19:29:43.222Z,4.00
2022-10-28T19:32:11.183Z,4.00
2022-10-28T19:34:38.978Z,4.00
2022-10-28T19:37:06.712Z,4.00
2022-10-28T19:39:34.497Z,4.00
2022-10-28T19:42:02.229Z,3.40
2022-10-28T19:44:30.404Z,4.40
2022-10-28T19:46:58.108Z,3.60
2022-10-28T19:49:28.684Z,4.10
2022-10-28T19:52:00.782Z,4.10
2022-10-28T19:54:28.458Z,4.10
2022-10-28T19:56:56.224Z,4.00
2022-10-28T19:59:23.930Z,3.70
2022-10-28T20:01:51.733Z,4.40
2022-10-28T20:04:21.552Z,4.30
2022-10-28T20:06:49.241Z,4.30
2022-10-28T20:09:16.884Z,3.90
2022-10-28T20:11:44.850Z,4.40
2022-10-28T20:14:13.631Z,3.40
2022-10-28T20:16:43.119Z,4.20
2022-10-28T20:19:11.818Z,4.00
2022-10-28T20:21:40.310Z,4.10
2022-10-28T20:24:10.960Z,4.50
2022-10-28T20:26:39.114Z,4.20
2022-10-28T20:29:08.720Z,4.70
2022-10-28T20:31:38.460Z,4.50
2022-10-28T20:34:06.961Z,4.20
2022-10-28T20:36:45.499Z,4.40
2022-10-28T20:39:18.265Z,5.50
2022-10-28T20:41:47.315Z,4.00
2022-10-28T20:44:15.633Z,3.60
2022-10-28T20:46:45.216Z,4.00
2022-10-28T20:49:13.362Z,4.60
2022-10-28T20:51:41.567Z,4.40
2022-10-28T20:54:09.757Z,4.00
2022-10-28T20:56:38.575Z,4.20
2022-10-28T20:59:06.724Z,4.40
2022-10-28T21:01:37.675Z,4.10
2022-10-28T21:04:08.834Z,5.00
2022-10-28T21:09:06.068Z,4.40
2022-10-28T21:11:33.871Z,3.80
2022-10-28T21:14:02.016Z,4.40
2022-10-28T21:16:30.641Z,4.40
2022-10-28T21:18:59.589Z,6.00
2022-10-28T21:21:28.234Z,8.20
2022-10-28T21:23:58.660Z,6.70
2022-10-28T21:26:27.284Z,4.20
2022-10-28T21:28:56.502Z,4.60
2022-10-28T21:31:25.028Z,4.30
2022-10-28T21:33:53.592Z,4.60
2022-10-28T21:36:22.282Z,4.60
2022-10-28T21:38:54.458Z,4.40
2022-10-28T21:41:23.891Z,5.10
2022-10-28T21:43:53.116Z,4.60
2022-10-28T21:46:22.383Z,4.20
2022-10-28T21:48:50.383Z,4.30
2022-10-28T21:51:18.333Z,5.30
2022-10-28T21:53:46.388Z,4.80
2022-10-28T21:56:18.465Z,4.80
2022-10-28T21:58:51.214Z,4.20
2022-10-28T22:01:24.402Z,4.60
2022-10-28T22:03:54.750Z,4.40
2022-10-28T22:06:23.080Z,4.60
2022-10-28T22:08:54.998Z,4.80
2022-10-28T22:11:24.206Z,4.30
2022-10-28T22:13:58.189Z,4.90
2022-10-28T22:16:27.448Z,4.60
2022-10-28T22:18:55.663Z,4.80
2022-10-28T22:21:26.232Z,4.30
2022-10-28T22:23:53.941Z,4.90
2022-10-28T22:26:23.991Z,4.30
2022-10-28T22:28:53.559Z,4.60
2022-10-28T22:31:24.172Z,4.20
2022-10-28T22:33:52.051Z,4.60
2022-10-28T22:36:23.147Z,4.00
2022-10-28T22:38:51.939Z,4.30
2022-10-28T22:41:24.526Z,4.40
2022-10-28T22:44:00.470Z,4.40
2022-10-28T22:46:31.789Z,4.10
2022-10-28T22:48:59.992Z,4.30
2022-10-28T22:51:28.074Z,4.80
2022-10-28T22:53:55.857Z,5.10
2022-10-28T22:56:25.387Z,5.40
2022-10-28T22:58:58.622Z,4.70
2022-10-28T23:01:28.672Z,5.00
2022-10-28T23:03:56.871Z,4.50
2022-10-28T23:06:27.143Z,4.20
2022-10-28T23:08:55.797Z,4.30
2022-10-28T23:11:23.586Z,4.70
2022-10-28T23:13:52.998Z,5.00
2022-10-28T23:16:21.321Z,4.70
2022-10-28T23:18:49.372Z,3.80
2022-10-28T23:21:20.536Z,4.20
2022-10-28T23:23:54.068Z,4.00
2022-10-28T23:26:23.315Z,5.00
2022-10-28T23:28:56.744Z,4.30
2022-10-28T23:31:24.528Z,4.30
2022-10-28T23:33:55.031Z,4.50
2022-10-28T23:36:23.190Z,4.50
2022-10-28T23:38:50.898Z,4.60
2022-10-28T23:41:21.010Z,5.00
2022-10-28T23:43:49.538Z,5.70
2022-10-28T23:46:18.128Z,4.10
2022-10-28T23:48:45.818Z,4.40
2022-10-28T23:51:14.308Z,5.10
2022-10-28T23:53:42.015Z,4.90
2022-10-28T23:56:10.004Z,4.80
2022-10-28T23:58:37.703Z,4.60
